createdAt,value
2023-03-29T00:01:00.460Z,68.65
2023-03-29T00:03:29.020Z,68.66
2023-03-29T00:06:03.577Z,68.62
2023-03-29T00:08:34.312Z,68.60
2023-03-29T00:11:03.038Z,68.59
2023-03-29T00:13:31.295Z,68.70
2023-03-29T00:15:59.542Z,68.59
2023-03-29T00:18:28.012Z,68.61
2023-03-29T00:20:57.614Z,68.74
2023-03-29T00:23:26.252Z,68.67
2023-03-29T00:25:54.658Z,68.58
2023-03-29T00:28:23.173Z,68.74
2023-03-29T00:30:51.683Z,68.74
2023-03-29T00:33:21.055Z,68.79
2023-03-29T00:35:49.484Z,68.86
2023-03-29T00:38:18.336Z,68.89
2023-03-29T00:40:47.236Z,69.02
2023-03-29T00:43:16.039Z,69.08
2023-03-29T00:45:44.367Z,69.20
2023-03-29T00:48:16.038Z,69.29
2023-03-29T00:51:04.247Z,69.35
2023-03-29T00:53:44.557Z,69.32
2023-03-29T00:56:18.232Z,69.34
2023-03-29T00:59:18.795Z,69.48
2023-03-29T01:01:55.201Z,69.75
2023-03-29T01:04:32.980Z,69.74
2023-03-29T01:07:13.308Z,69.98
2023-03-29T01:09:45.965Z,70.06
2023-03-29T01:12:20.238Z,70.02
2023-03-29T01:14:55.704Z,70.02
2023-03-29T01:17:25.807Z,69.97
2023-03-29T01:20:10.885Z,70.08
2023-03-29T01:22:57.347Z,70.26
2023-03-29T01:25:54.554Z,70.31
2023-03-29T01:28:30.250Z,70.27
2023-03-29T01:31:07.531Z,70.40
2023-03-29T01:33:48.549Z,70.76
2023-03-29T01:36:20.033Z,70.91
2023-03-29T01:38:59.632Z,71.09
2023-03-29T01:41:45.754Z,71.14
2023-03-29T01:44:45.761Z,71.12
2023-03-29T01:47:43.482Z,71.39
2023-03-29T01:50:18.210Z,71.52
2023-03-29T01:52:46.343Z,71.24
2023-03-29T01:55:21.081Z,71.46
2023-03-29T01:57:52.689Z,71.08
2023-03-29T02:00:27.784Z,71.49
2023-03-29T02:03:00.720Z,72.08
2023-03-29T02:05:31.992Z,72.00
2023-03-29T02:08:01.949Z,71.90
2023-03-29T02:10:34.452Z,71.76
2023-03-29T02:13:03.254Z,71.92
2023-03-29T02:15:34.474Z,72.26
2023-03-29T02:18:06.779Z,72.38
2023-03-29T02:20:43.089Z,72.53
2023-03-29T02:23:23.939Z,72.48
2023-03-29T02:25:57.149Z,72.36
2023-03-29T02:28:27.361Z,72.67
2023-03-29T02:31:23.018Z,72.86
2023-03-29T02:33:56.134Z,73.03
2023-03-29T02:36:31.209Z,73.00
2023-03-29T02:39:04.693Z,72.93
2023-03-29T02:41:34.115Z,72.94
2023-03-29T02:44:05.651Z,73.38
2023-03-29T02:46:35.459Z,73.35
2023-03-29T02:49:05.316Z,73.49
2023-03-29T02:51:34.840Z,73.61
2023-03-29T02:54:12.984Z,73.39
2023-03-29T02:57:03.722Z,73.80
2023-03-29T02:59:33.522Z,74.00
2023-03-29T03:02:01.649Z,73.97
2023-03-29T03:04:30.031Z,73.84
2023-03-29T03:06:58.040Z,73.73
2023-03-29T03:09:27.557Z,73.89
2023-03-29T03:11:56.239Z,74.05
2023-03-29T03:14:25.775Z,74.09
2023-03-29T03:16:55.252Z,74.17
2023-03-29T03:19:23.789Z,74.28
2023-03-29T03:21:51.859Z,74.24
2023-03-29T03:24:19.813Z,74.37
2023-03-29T03:26:48.007Z,74.37
2023-03-29T03:29:16.383Z,74.61
2023-03-29T03:32:04.595Z,74.68
2023-03-29T03:34:51.999Z,74.87
2023-03-29T03:37:23.834Z,74.86
2023-03-29T03:39:52.121Z,74.92
2023-03-29T03:42:20.790Z,75.01
2023-03-29T03:44:50.144Z,75.25
2023-03-29T03:47:48.509Z,75.38
2023-03-29T03:50:21.815Z,75.50
2023-03-29T03:52:50.134Z,75.60
2023-03-29T03:55:18.155Z,75.64
2023-03-29T03:58:05.287Z,75.78
2023-03-29T04:00:33.747Z,75.93
2023-03-29T04:03:14.859Z,76.08
2023-03-29T04:05:45.024Z,76.26
2023-03-29T04:08:14.232Z,76.40
2023-03-29T04:11:07.650Z,76.51
2023-03-29T04:13:38.270Z,76.73
2023-03-29T04:16:19.760Z,76.96
2023-03-29T04:18:47.968Z,76.99
2023-03-29T04:21:18.884Z,77.02
2023-03-29T04:23:49.305Z,77.10
2023-03-29T04:26:18.239Z,77.19
2023-03-29T04:28:52.461Z,77.19
2023-03-29T04:31:35.324Z,77.37
2023-03-29T04:34:26.391Z,77.08
2023-03-29T04:36:54.670Z,77.17
2023-03-29T04:39:32.325Z,77.27
2023-03-29T04:42:03.045Z,77.24
2023-03-29T04:44:34.202Z,77.23
2023-03-29T04:47:03.876Z,77.26
2023-03-29T04:49:53.637Z,77.50
2023-03-29T04:52:33.332Z,77.65
2023-03-29T04:55:03.221Z,77.64
2023-03-29T04:57:46.987Z,77.81
2023-03-29T05:00:27.307Z,77.94
2023-03-29T05:03:14.715Z,77.80
2023-03-29T05:06:12.192Z,77.92
2023-03-29T05:08:41.011Z,77.89
2023-03-29T05:11:25.442Z,77.94
2023-03-29T05:13:55.971Z,77.90
2023-03-29T05:16:26.555Z,77.84
2023-03-29T05:18:56.945Z,77.70
2023-03-29T05:21:28.884Z,77.74
2023-03-29T05:23:58.882Z,77.61
2023-03-29T05:26:45.098Z,77.65
2023-03-29T05:29:14.320Z,77.92
2023-03-29T05:31:43.656Z,77.74
2023-03-29T05:34:11.913Z,77.84
2023-03-29T05:36:43.447Z,77.55
2023-03-29T05:39:11.692Z,77.38
2023-03-29T05:41:40.606Z,77.47
2023-03-29T05:44:26.074Z,77.44
2023-03-29T05:46:59.314Z,77.22
2023-03-29T05:49:27.388Z,77.22
2023-03-29T05:52:15.911Z,77.10
2023-03-29T05:54:44.272Z,76.98
2023-03-29T05:57:12.869Z,76.89
2023-03-29T05:59:43.393Z,76.69
2023-03-29T06:02:12.532Z,76.51
2023-03-29T06:04:45.697Z,76.36
2023-03-29T06:07:26.013Z,76.02
2023-03-29T06:10:23.798Z,75.72
2023-03-29T06:12:56.959Z,75.64
2023-03-29T06:15:25.742Z,75.43
2023-03-29T06:18:09.943Z,75.49
2023-03-29T06:20:38.801Z,75.54
2023-03-29T06:23:10.997Z,75.26
2023-03-29T06:25:39.799Z,75.00
2023-03-29T06:28:07.872Z,74.48
2023-03-29T06:30:36.450Z,74.23
2023-03-29T06:33:07.309Z,74.18
2023-03-29T06:35:48.728Z,73.82
2023-03-29T06:38:21.087Z,73.20
2023-03-29T06:41:13.139Z,73.05
2023-03-29T06:44:04.309Z,72.88
2023-03-29T06:46:38.607Z,72.80
2023-03-29T06:49:08.751Z,71.92
2023-03-29T06:52:00.201Z,71.69
2023-03-29T06:54:28.243Z,71.76
2023-03-29T06:57:04.946Z,71.62
2023-03-29T06:59:35.107Z,71.54
2023-03-29T07:02:25.413Z,70.70
2023-03-29T07:05:01.505Z,70.54
2023-03-29T07:07:52.557Z,70.10
2023-03-29T07:10:35.468Z,69.94
2023-03-29T07:13:30.672Z,70.14
2023-03-29T07:16:00.154Z,69.48
2023-03-29T07:18:46.946Z,68.35
2023-03-29T07:21:29.063Z,68.25
2023-03-29T07:23:58.405Z,68.95
2023-03-29T07:26:28.754Z,68.49
2023-03-29T07:28:58.903Z,67.90
2023-03-29T07:31:29.476Z,67.84
2023-03-29T07:34:06.801Z,67.74
2023-03-29T07:36:34.888Z,67.63
2023-03-29T07:39:03.776Z,66.88
2023-03-29T07:41:34.339Z,66.44
2023-03-29T07:44:09.581Z,65.79
2023-03-29T07:46:39.406Z,66.32
2023-03-29T07:49:08.251Z,65.66
2023-03-29T07:51:37.171Z,65.73
2023-03-29T07:54:09.092Z,65.97
2023-03-29T07:56:47.764Z,64.76
2023-03-29T07:59:45.203Z,63.00
2023-03-29T08:02:19.725Z,61.53
2023-03-29T08:04:50.256Z,60.43
2023-03-29T08:07:19.989Z,59.32
2023-03-29T08:10:09.512Z,59.81
2023-03-29T08:13:08.507Z,61.64
2023-03-29T08:15:47.496Z,59.81
2023-03-29T08:18:29.815Z,58.13
2023-03-29T08:20:58.767Z,55.38
2023-03-29T08:23:27.237Z,55.68
2023-03-29T08:26:16.205Z,56.70
2023-03-29T08:28:44.919Z,57.52
2023-03-29T08:31:13.290Z,55.26
2023-03-29T08:33:47.354Z,56.58
2023-03-29T08:36:38.429Z,54.82
2023-03-29T08:39:12.214Z,56.12
2023-03-29T08:41:54.590Z,53.92
2023-03-29T08:44:42.003Z,51.95
2023-03-29T08:47:46.775Z,49.29
2023-03-29T08:50:16.042Z,50.67
2023-03-29T08:52:56.050Z,50.30
2023-03-29T08:55:45.706Z,49.63
2023-03-29T08:58:40.717Z,49.58
2023-03-29T09:01:11.739Z,47.53
2023-03-29T09:04:31.725Z,44.24
2023-03-29T09:07:10.294Z,42.01
2023-03-29T09:09:43.153Z,41.54
2023-03-29T09:12:32.227Z,42.00
2023-03-29T09:15:22.224Z,42.58
2023-03-29T09:18:19.628Z,42.04
2023-03-29T09:20:52.599Z,39.43
2023-03-29T09:23:34.923Z,40.22
2023-03-29T09:26:18.714Z,40.59
2023-03-29T09:29:33.294Z,43.49
2023-03-29T09:32:06.704Z,45.05
2023-03-29T09:34:49.180Z,42.36
2023-03-29T09:37:30.074Z,42.54
2023-03-29T09:39:58.543Z,44.35
2023-03-29T09:42:38.255Z,43.44
2023-03-29T09:45:08.850Z,42.81
2023-03-29T09:47:51.787Z,41.31
2023-03-29T09:50:31.318Z,43.31
2023-03-29T09:53:01.797Z,43.04
2023-03-29T09:55:33.989Z,40.75
2023-03-29T09:58:27.579Z,40.81
2023-03-29T10:01:01.648Z,42.85
2023-03-29T10:03:32.151Z,43.18
2023-03-29T10:06:12.278Z,43.96
2023-03-29T10:08:47.910Z,44.05
2023-03-29T10:11:29.140Z,45.82
2023-03-29T10:14:03.951Z,41.78
2023-03-29T10:16:40.439Z,41.75
2023-03-29T10:19:34.505Z,42.72
2023-03-29T10:22:07.792Z,44.75
2023-03-29T10:24:35.712Z,44.79
2023-03-29T10:27:10.732Z,44.74
2023-03-29T10:29:43.204Z,44.61
2023-03-29T10:32:26.349Z,43.99
2023-03-29T10:34:55.318Z,41.79
2023-03-29T10:37:23.936Z,40.89
2023-03-29T10:39:54.831Z,40.16
2023-03-29T10:42:25.296Z,39.70
2023-03-29T10:44:56.635Z,40.78
2023-03-29T10:47:25.593Z,41.39
2023-03-29T10:49:57.069Z,40.93
2023-03-29T10:52:26.191Z,39.95
2023-03-29T10:54:56.469Z,39.45
2023-03-29T10:57:45.768Z,40.37
2023-03-29T11:00:18.072Z,41.52
2023-03-29T11:03:09.838Z,40.27
2023-03-29T11:05:48.012Z,41.72
2023-03-29T11:08:58.844Z,42.33
2023-03-29T11:12:16.412Z,42.94
2023-03-29T11:15:03.122Z,41.93
2023-03-29T11:17:59.050Z,38.65
2023-03-29T11:20:42.334Z,38.43
2023-03-29T11:23:32.486Z,39.55
2023-03-29T11:26:18.503Z,38.06
2023-03-29T11:28:57.237Z,39.40
2023-03-29T11:31:53.001Z,39.38
2023-03-29T11:35:02.360Z,39.81
2023-03-29T11:38:14.510Z,41.80
2023-03-29T11:40:50.755Z,42.17
2023-03-29T11:43:35.218Z,39.26
2023-03-29T11:46:12.040Z,39.16
2023-03-29T11:48:53.966Z,39.35
2023-03-29T11:51:30.929Z,39.54
2023-03-29T11:54:14.293Z,41.24
2023-03-29T11:56:52.431Z,41.42
2023-03-29T11:59:28.922Z,39.79
2023-03-29T12:02:12.683Z,40.64
2023-03-29T12:04:48.609Z,38.87
2023-03-29T12:07:47.564Z,37.88
2023-03-29T12:10:27.648Z,38.40
2023-03-29T12:13:06.019Z,36.05
2023-03-29T12:15:45.999Z,35.91
2023-03-29T12:18:27.983Z,35.68
2023-03-29T12:21:07.187Z,36.48
2023-03-29T12:23:42.563Z,38.49
2023-03-29T12:26:33.924Z,36.86
2023-03-29T12:29:23.079Z,34.70
2023-03-29T12:32:22.554Z,36.24
2023-03-29T12:35:15.093Z,34.22
2023-03-29T12:38:10.020Z,34.34
2023-03-29T12:41:05.359Z,35.20
2023-03-29T12:44:03.789Z,34.92
2023-03-29T12:46:44.677Z,31.10
2023-03-29T12:49:32.918Z,33.23
2023-03-29T12:52:08.772Z,34.98
2023-03-29T12:54:36.851Z,35.00
2023-03-29T12:57:48.875Z,35.97
2023-03-29T13:00:27.161Z,34.81
2023-03-29T13:03:22.271Z,30.76
2023-03-29T13:06:04.166Z,29.02
2023-03-29T13:08:35.728Z,29.50
2023-03-29T13:11:05.898Z,31.04
2023-03-29T13:13:37.155Z,32.31
2023-03-29T13:16:19.615Z,32.08
2023-03-29T13:19:15.366Z,34.25
2023-03-29T13:21:54.102Z,31.46
2023-03-29T13:24:40.599Z,32.24
2023-03-29T13:27:26.319Z,31.75
2023-03-29T13:30:20.939Z,31.15
2023-03-29T13:33:16.368Z,28.39
2023-03-29T13:36:01.004Z,30.15
2023-03-29T13:38:33.028Z,30.93
2023-03-29T13:41:07.349Z,32.25
2023-03-29T13:43:44.934Z,31.26
2023-03-29T13:46:36.909Z,31.87
2023-03-29T13:49:18.340Z,30.05
2023-03-29T13:52:06.905Z,30.82
2023-03-29T13:55:00.842Z,32.68
2023-03-29T13:57:40.049Z,31.43
2023-03-29T14:00:28.783Z,31.69
2023-03-29T14:03:04.293Z,29.25
2023-03-29T14:05:40.199Z,30.21
2023-03-29T14:08:33.343Z,29.20
2023-03-29T14:11:05.136Z,28.43
2023-03-29T14:13:34.904Z,29.51
2023-03-29T14:16:12.379Z,29.68
2023-03-29T14:18:49.565Z,31.02
2023-03-29T14:21:20.619Z,30.37
2023-03-29T14:23:57.179Z,30.65
2023-03-29T14:26:30.891Z,30.20
2023-03-29T14:29:01.508Z,31.67
2023-03-29T14:31:36.175Z,31.39
2023-03-29T14:34:08.096Z,30.91
2023-03-29T14:36:36.527Z,30.07
2023-03-29T14:39:07.995Z,29.12
2023-03-29T14:41:38.249Z,28.77
2023-03-29T14:44:08.703Z,29.27
2023-03-29T14:46:37.187Z,29.69
2023-03-29T14:49:06.531Z,30.42
2023-03-29T14:51:37.737Z,28.40
2023-03-29T14:54:06.544Z,28.90
2023-03-29T14:56:34.883Z,29.77
2023-03-29T14:59:04.992Z,29.30
2023-03-29T15:01:33.545Z,30.74
2023-03-29T15:04:07.671Z,30.49
2023-03-29T15:06:41.817Z,28.05
2023-03-29T15:09:24.661Z,26.27
2023-03-29T15:11:58.822Z,26.64
2023-03-29T15:14:34.055Z,28.04
2023-03-29T15:17:20.884Z,27.96
2023-03-29T15:19:56.670Z,27.82
2023-03-29T15:22:32.100Z,28.55
2023-03-29T15:25:01.852Z,28.05
2023-03-29T15:27:41.968Z,27.68
2023-03-29T15:30:15.865Z,27.28
2023-03-29T15:32:44.455Z,28.07
2023-03-29T15:35:26.110Z,28.55
2023-03-29T15:37:54.183Z,28.33
2023-03-29T15:40:26.786Z,29.25
2023-03-29T15:42:55.738Z,29.29
2023-03-29T15:45:24.082Z,29.38
2023-03-29T15:47:52.555Z,28.90
2023-03-29T15:50:20.708Z,30.77
2023-03-29T15:52:48.959Z,29.86
2023-03-29T15:55:17.069Z,29.10
2023-03-29T15:57:48.448Z,30.34
2023-03-29T16:00:19.571Z,29.78
2023-03-29T16:02:47.622Z,30.16
2023-03-29T16:05:15.640Z,29.53
2023-03-29T16:07:44.130Z,30.03
2023-03-29T16:10:12.059Z,30.81
2023-03-29T16:12:40.788Z,31.05
2023-03-29T16:15:18.138Z,30.70
2023-03-29T16:17:46.071Z,31.23
2023-03-29T16:20:20.163Z,31.33
2023-03-29T16:22:49.072Z,31.11
2023-03-29T16:25:19.724Z,31.61
2023-03-29T16:27:47.783Z,31.71
2023-03-29T16:30:16.119Z,32.13
2023-03-29T16:32:44.201Z,33.22
2023-03-29T16:35:32.195Z,33.69
2023-03-29T16:38:00.525Z,33.32
2023-03-29T16:40:28.671Z,34.31
2023-03-29T16:42:56.650Z,34.97
2023-03-29T16:45:25.223Z,35.39
2023-03-29T16:47:54.712Z,35.43
2023-03-29T16:50:27.496Z,35.73
2023-03-29T16:52:56.113Z,35.75
2023-03-29T16:55:24.826Z,35.61
2023-03-29T16:57:52.850Z,36.88
2023-03-29T17:00:21.975Z,36.89
2023-03-29T17:02:50.079Z,37.44
2023-03-29T17:05:19.361Z,37.61
2023-03-29T17:07:47.554Z,36.91
2023-03-29T17:10:15.761Z,37.93
2023-03-29T17:12:43.850Z,38.24
2023-03-29T17:15:12.161Z,38.26
2023-03-29T17:17:40.277Z,38.87
2023-03-29T17:20:12.578Z,39.11
2023-03-29T17:22:41.510Z,39.72
2023-03-29T17:25:10.621Z,40.40
2023-03-29T17:27:38.843Z,40.76
2023-03-29T17:30:07.496Z,40.98
2023-03-29T17:32:36.710Z,41.59
2023-03-29T17:35:05.218Z,41.93
2023-03-29T17:37:33.423Z,42.60
2023-03-29T17:40:02.074Z,43.50
2023-03-29T17:42:30.053Z,43.31
2023-03-29T17:44:58.578Z,43.67
2023-03-29T17:47:26.629Z,44.37
2023-03-29T17:49:54.718Z,44.44
2023-03-29T17:52:22.843Z,44.66
2023-03-29T17:54:51.004Z,44.86
2023-03-29T17:57:19.264Z,45.24
2023-03-29T17:59:47.372Z,45.53
2023-03-29T18:02:21.233Z,45.42
2023-03-29T18:04:51.176Z,45.89
2023-03-29T18:07:19.768Z,46.24
2023-03-29T18:09:48.066Z,46.58
2023-03-29T18:12:16.818Z,46.82
2023-03-29T18:14:45.132Z,47.04
2023-03-29T18:17:13.153Z,47.06
2023-03-29T18:19:41.252Z,47.31
2023-03-29T18:22:12.580Z,47.91
2023-03-29T18:24:40.884Z,47.90
2023-03-29T18:27:09.181Z,47.67
2023-03-29T18:29:37.493Z,47.70
2023-03-29T18:32:06.378Z,47.96
2023-03-29T18:34:34.640Z,48.26
2023-03-29T18:37:04.413Z,48.70
2023-03-29T18:39:34.916Z,48.81
2023-03-29T18:42:03.102Z,48.52
2023-03-29T18:44:31.454Z,48.73
2023-03-29T18:47:02.640Z,49.03
2023-03-29T18:49:30.604Z,49.75
2023-03-29T18:51:58.953Z,49.83
2023-03-29T18:54:26.960Z,49.95
2023-03-29T18:56:57.205Z,49.39
2023-03-29T18:59:26.991Z,49.49
2023-03-29T19:01:55.065Z,49.15
2023-03-29T19:04:26.917Z,48.86
2023-03-29T19:06:56.428Z,49.16
2023-03-29T19:09:24.692Z,49.20
2023-03-29T19:11:54.982Z,48.81
2023-03-29T19:14:26.250Z,48.49
2023-03-29T19:16:54.522Z,48.94
2023-03-29T19:19:23.856Z,48.71
2023-03-29T19:21:53.553Z,48.42
2023-03-29T19:24:22.190Z,48.90
2023-03-29T19:26:53.510Z,48.85
2023-03-29T19:29:22.139Z,49.00
2023-03-29T19:31:51.958Z,48.59
2023-03-29T19:34:23.124Z,48.83
2023-03-29T19:36:53.520Z,48.93
2023-03-29T19:39:23.223Z,49.02
2023-03-29T19:41:51.502Z,48.46
2023-03-29T19:44:20.241Z,49.09
2023-03-29T19:46:48.152Z,49.07
2023-03-29T19:49:16.553Z,48.73
2023-03-29T19:51:45.193Z,48.84
2023-03-29T19:54:13.928Z,48.81
2023-03-29T19:56:43.076Z,49.29
2023-03-29T19:59:15.020Z,49.37
2023-03-29T20:01:51.419Z,48.99
2023-03-29T20:04:22.851Z,48.82
2023-03-29T20:06:51.098Z,49.21
2023-03-29T20:09:19.175Z,49.34
2023-03-29T20:11:47.446Z,49.54
2023-03-29T20:14:16.127Z,49.52
2023-03-29T20:16:45.128Z,49.14
2023-03-29T20:19:17.576Z,49.06
2023-03-29T20:21:50.944Z,49.98
2023-03-29T20:24:19.082Z,49.97
2023-03-29T20:26:47.024Z,50.15
2023-03-29T20:29:17.941Z,50.23
2023-03-29T20:31:48.101Z,49.74
2023-03-29T20:34:18.431Z,49.98
2023-03-29T20:36:46.998Z,50.48
2023-03-29T20:39:18.940Z,50.85
2023-03-29T20:41:48.004Z,50.51
2023-03-29T20:44:17.576Z,50.25
2023-03-29T20:46:54.692Z,50.88
2023-03-29T20:49:26.559Z,50.92
2023-03-29T20:51:58.927Z,50.74
2023-03-29T20:54:27.140Z,51.23
2023-03-29T20:56:55.122Z,51.01
2023-03-29T20:59:23.884Z,50.87
2023-03-29T21:01:52.261Z,51.10
2023-03-29T21:04:23.359Z,50.92
2023-03-29T21:06:51.540Z,51.09
2023-03-29T21:09:22.319Z,51.22
2023-03-29T21:11:50.848Z,50.98
2023-03-29T21:14:21.329Z,51.34
2023-03-29T21:16:49.667Z,51.53
2023-03-29T21:19:17.678Z,51.87
2023-03-29T21:21:47.563Z,51.66
2023-03-29T21:24:16.669Z,51.98
2023-03-29T21:26:48.665Z,52.11
2023-03-29T21:29:16.825Z,52.49
2023-03-29T21:31:45.584Z,52.22
2023-03-29T21:34:13.803Z,52.61
2023-03-29T21:36:42.491Z,52.65
2023-03-29T21:39:10.460Z,52.66
2023-03-29T21:41:38.505Z,52.55
2023-03-29T21:44:06.592Z,52.85
2023-03-29T21:46:34.635Z,52.71
2023-03-29T21:49:02.916Z,52.92
2023-03-29T21:51:31.173Z,52.83
2023-03-29T21:53:59.120Z,53.02
2023-03-29T21:56:28.391Z,52.81
2023-03-29T21:58:56.464Z,52.73
2023-03-29T22:01:24.695Z,52.89
2023-03-29T22:03:53.182Z,52.79
2023-03-29T22:06:21.400Z,53.06
2023-03-29T22:08:53.085Z,52.84
2023-03-29T22:11:21.671Z,53.01
2023-03-29T22:13:52.561Z,52.89
2023-03-29T22:16:22.343Z,52.96
2023-03-29T22:18:50.597Z,52.89
2023-03-29T22:21:22.563Z,52.96
2023-03-29T22:23:56.513Z,52.82
2023-03-29T22:26:28.349Z,52.85
2023-03-29T22:28:58.400Z,52.81
2023-03-29T22:31:28.150Z,52.95
2023-03-29T22:33:56.855Z,52.93
2023-03-29T22:36:27.268Z,53.00
2023-03-29T22:38:55.840Z,52.96
2023-03-29T22:41:26.185Z,52.85
2023-03-29T22:43:57.304Z,52.93
2023-03-29T22:46:26.464Z,52.93
2023-03-29T22:48:54.977Z,52.82
2023-03-29T22:51:23.603Z,52.79
2023-03-29T22:53:52.075Z,53.05
2023-03-29T22:56:20.511Z,52.79
2023-03-29T22:58:48.643Z,52.80
2023-03-29T23:01:16.956Z,52.98
2023-03-29T23:03:45.122Z,52.94
2023-03-29T23:06:13.198Z,52.90
2023-03-29T23:08:41.338Z,53.05
2023-03-29T23:11:09.320Z,53.13
2023-03-29T23:13:37.502Z,53.09
2023-03-29T23:16:05.956Z,52.89
2023-03-29T23:18:37.854Z,52.86
2023-03-29T23:21:06.869Z,53.14
2023-03-29T23:23:35.731Z,52.94
2023-03-29T23:26:04.042Z,53.01
2023-03-29T23:28:34.808Z,53.05
2023-03-29T23:31:11.723Z,53.15
2023-03-29T23:33:42.877Z,53.23
2023-03-29T23:36:17.669Z,53.16
2023-03-29T23:38:47.121Z,53.28
2023-03-29T23:41:16.778Z,53.38
2023-03-29T23:43:47.274Z,53.55
2023-03-29T23:46:17.710Z,53.74
2023-03-29T23:48:49.080Z,53.77
2023-03-29T23:51:18.923Z,53.85
2023-03-29T23:53:47.878Z,54.00
2023-03-29T23:56:16.301Z,54.19
2023-03-29T23:58:44.869Z,54.27
